Terminal Aerodrome Forecast
Issued by NWS

Home | Current Version | Previous Version | Text Only | Print | Product List | Glossary On
Versions: 1 2 3 4 5 6 7 8 9 10 11 12 13 14 15 16 17 18 19 20 21 22 23 24 25 26 27 28 29 30 31 32 33 34
000
FTUS45 KCYS 271355 AAA
TAFLAR
TAF AMD
KLAR 271355Z 2714/2812 23020G30KT P6SM BKN100 BKN200
     FM271500 25025G35KT P6SM BKN120 BKN200
     FM280100 25020G30KT P6SM SCT150 SCT250=

USA.gov is the U.S. government's official web portal to all federal, state and local government web resources and services.